Portada
METAR-TAF:

METAR-TAF

Aeropuertos :

Melilla, España

Aeropuerto de Melilla

latitud: 35-17N, longitud: 002-57W, altitud: 47 m

Observación

El informe se hizo hace 22 minutos, a las 11:00 UTC
Viento 1 kt del este
Temperatura 20°C
Humedad 32%
Presión 1021 hPa
Visibilidad 10 km o más
sin nubes por debajo de 1500 m y sin presencia de cumulonimbus.

METAR: GEML 231100Z 09001KT CAVOK 20/03 Q1021

Hora: 12:22 (11:22 UTC)

Pronóstico

El informe se hizo hace 3 horas y 22 minutos, a las 08:00 UTC
Pronóstico válido del 23 a las 09 UTC al 24 a las 09 UTC
Viento 2 kt con dirección variable
Visibilidad 10 km o más
sin nubes por debajo de 1500 m y sin presencia de cumulonimbus.

TAF: GEML 230800Z 2309/2409 VRB02KT CAVOK TX19/2313Z TN10/2406Z

Observaciones y pronósticos meteorológicos de más de 4000 aeropuertos (mensajes METAR y TAF).

Los puntos amarillos y rojos representan las estaciones disponibles.

Ponga el ratón en el punto deseado para ver el nombre de la estación.

Haga clic para ver las observaciones y los pronósticos meteorológicos.

Para cambiar el mapa : haga clic en los botones verdes con una cruz de color negro para hacer un zoom, en el botón verde con un guión para alejar o en las flechas verdes para mapas adyacentes.


METAR-TAF: